createdAt,value
2018-01-16T00:00:19.347Z,6.17
2018-01-16T00:01:19.108Z,6.11
2018-01-16T00:02:19.824Z,6.04
2018-01-16T00:03:19.062Z,6.15
2018-01-16T00:04:19.077Z,6.06
2018-01-16T00:05:19.029Z,6.08
2018-01-16T00:06:19.026Z,6.06
2018-01-16T00:07:19.001Z,6.04
2018-01-16T00:08:18.994Z,6.09
2018-01-16T00:09:18.963Z,6.17
2018-01-16T00:10:18.950Z,6.12
2018-01-16T00:11:18.942Z,6.11
2018-01-16T00:12:19.226Z,6.06
2018-01-16T00:13:18.901Z,6.04
2018-01-16T00:14:18.863Z,6.01
2018-01-16T00:15:18.862Z,6.03
2018-01-16T00:16:18.842Z,6.03
2018-01-16T00:17:18.832Z,6.03
2018-01-16T00:18:18.871Z,5.99
2018-01-16T00:19:18.787Z,6.01
2018-01-16T00:20:18.767Z,6.04
2018-01-16T00:21:18.741Z,6.08
2018-01-16T00:22:18.740Z,6.00
2018-01-16T00:23:18.714Z,6.08
2018-01-16T00:24:18.695Z,6.14
2018-01-16T00:25:18.692Z,6.04
2018-01-16T00:26:18.668Z,6.08
2018-01-16T00:27:18.650Z,6.08
2018-01-16T00:28:18.641Z,6.09
2018-01-16T00:29:18.602Z,6.11
2018-01-16T00:30:18.883Z,6.18
2018-01-16T00:31:18.579Z,6.18
2018-01-16T00:32:18.559Z,6.12
2018-01-16T00:33:18.540Z,6.12
2018-01-16T00:34:18.534Z,6.15
2018-01-16T00:35:18.488Z,6.19
2018-01-16T00:36:18.534Z,6.14
2018-01-16T00:37:18.499Z,6.19
2018-01-16T00:38:18.465Z,6.12
2018-01-16T00:39:18.456Z,6.21
2018-01-16T00:40:18.414Z,6.22
2018-01-16T00:41:18.418Z,6.15
2018-01-16T00:42:18.402Z,6.14
2018-01-16T00:43:18.377Z,6.09
2018-01-16T00:44:18.347Z,6.14
2018-01-16T00:45:18.314Z,6.19
2018-01-16T00:46:18.366Z,6.19
2018-01-16T00:47:18.292Z,6.17
2018-01-16T00:48:18.281Z,6.18
2018-01-16T00:49:18.271Z,6.21
2018-01-16T00:50:18.238Z,6.19
2018-01-16T00:51:18.233Z,6.19
2018-01-16T00:52:18.530Z,6.22
2018-01-16T00:53:18.207Z,6.18
2018-01-16T00:54:18.183Z,6.31
2018-01-16T00:55:18.161Z,6.28
2018-01-16T00:56:18.173Z,6.25
2018-01-16T00:57:18.122Z,6.25
2018-01-16T00:58:18.158Z,6.25
2018-01-16T00:59:18.077Z,6.28
2018-01-16T01:00:18.070Z,6.28
2018-01-16T01:01:18.067Z,6.21
2018-01-16T01:02:18.094Z,6.28
2018-01-16T01:03:18.022Z,6.31
2018-01-16T01:04:18.011Z,6.21
2018-01-16T01:05:17.979Z,6.25
2018-01-16T01:06:17.980Z,6.28
2018-01-16T01:07:18.266Z,6.27
2018-01-16T01:08:17.940Z,6.22
2018-01-16T01:09:17.920Z,6.17
2018-01-16T01:10:17.912Z,6.25
2018-01-16T01:11:17.886Z,6.28
2018-01-16T01:12:17.858Z,6.19
2018-01-16T01:13:17.910Z,6.28
2018-01-16T01:14:17.835Z,6.25
2018-01-16T01:15:17.816Z,6.28
2018-01-16T01:16:17.789Z,6.30
2018-01-16T01:17:17.797Z,6.27
2018-01-16T01:18:17.778Z,6.19
2018-01-16T01:19:17.747Z,6.27
2018-01-16T01:20:17.748Z,6.25
2018-01-16T01:21:17.695Z,6.18
2018-01-16T01:22:17.715Z,6.14
2018-01-16T01:23:17.916Z,6.11
2018-01-16T01:24:17.664Z,6.18
2018-01-16T01:25:17.642Z,6.14
2018-01-16T01:26:17.630Z,6.14
2018-01-16T01:27:17.617Z,6.12
2018-01-16T01:28:17.628Z,6.15
2018-01-16T01:29:17.613Z,6.15
2018-01-16T01:30:17.556Z,6.11
2018-01-16T01:31:18.025Z,6.14
2018-01-16T01:32:17.519Z,6.03
2018-01-16T01:33:18.331Z,6.04
2018-01-16T01:34:17.511Z,6.11
2018-01-16T01:35:17.457Z,5.99
2018-01-16T01:36:17.443Z,6.03
2018-01-16T01:37:17.434Z,6.08
2018-01-16T01:38:17.434Z,6.00
2018-01-16T01:39:17.718Z,5.91
2018-01-16T01:40:17.370Z,5.86
2018-01-16T01:41:17.348Z,5.99
2018-01-16T01:42:18.322Z,6.00
2018-01-16T01:43:17.323Z,5.97
2018-01-16T01:44:17.310Z,6.04
2018-01-16T01:45:17.366Z,5.97
2018-01-16T01:46:17.272Z,6.01
2018-01-16T01:47:17.262Z,6.04
2018-01-16T01:48:17.242Z,6.03
2018-01-16T01:49:17.225Z,6.09
2018-01-16T01:50:18.831Z,5.97
2018-01-16T01:51:17.196Z,6.04
2018-01-16T01:52:17.181Z,5.83
2018-01-16T01:53:17.179Z,5.97
2018-01-16T01:54:17.153Z,5.85
2018-01-16T01:55:17.131Z,5.90
2018-01-16T01:56:17.155Z,5.82
2018-01-16T01:57:17.101Z,5.81
2018-01-16T01:58:17.829Z,5.76
2018-01-16T01:59:19.165Z,5.72
2018-01-16T02:00:17.046Z,5.76
2018-01-16T02:01:17.051Z,5.74
2018-01-16T02:02:17.823Z,5.67
2018-01-16T02:03:16.987Z,5.72
2018-01-16T02:04:16.987Z,5.63
2018-01-16T02:05:16.944Z,5.60
2018-01-16T02:06:17.293Z,5.67
2018-01-16T02:07:16.893Z,5.63
2018-01-16T02:08:16.900Z,5.63
2018-01-16T02:09:16.875Z,5.60
2018-01-16T02:10:16.849Z,5.71
2018-01-16T02:11:16.847Z,5.58
2018-01-16T02:12:16.852Z,5.64
2018-01-16T02:13:16.802Z,5.60
2018-01-16T02:14:16.796Z,5.54
2018-01-16T02:15:17.334Z,5.49
2018-01-16T02:16:16.831Z,5.42
2018-01-16T02:17:17.844Z,5.46
2018-01-16T02:18:16.694Z,5.43
2018-01-16T02:19:16.703Z,5.40
2018-01-16T02:20:16.739Z,5.42
2018-01-16T02:21:16.671Z,5.43
2018-01-16T02:22:16.652Z,5.42
2018-01-16T02:23:16.641Z,5.46
2018-01-16T02:24:16.619Z,5.39
2018-01-16T02:25:16.600Z,5.36
2018-01-16T02:26:16.564Z,5.42
2018-01-16T02:27:16.563Z,5.27
2018-01-16T02:28:16.566Z,5.33
2018-01-16T02:29:18.327Z,5.38
2018-01-16T02:30:16.527Z,5.24
2018-01-16T02:31:16.475Z,5.40
2018-01-16T02:32:16.495Z,5.33
2018-01-16T02:33:17.339Z,5.38
2018-01-16T02:34:16.424Z,5.35
2018-01-16T02:35:16.421Z,5.35
2018-01-16T02:36:16.393Z,5.31
2018-01-16T02:37:16.389Z,5.35
2018-01-16T02:38:16.364Z,5.38
2018-01-16T02:39:16.855Z,5.25
2018-01-16T02:40:16.316Z,5.33
2018-01-16T02:41:16.308Z,5.27
2018-01-16T02:42:16.445Z,5.36
2018-01-16T02:43:16.353Z,5.25
2018-01-16T02:44:16.833Z,5.40
2018-01-16T02:45:16.936Z,5.36
2018-01-16T02:46:18.842Z,5.35
2018-01-16T02:47:16.240Z,5.30
2018-01-16T02:48:24.865Z,5.27
2018-01-16T02:49:26.979Z,5.36
2018-01-16T02:50:16.922Z,5.38
2018-01-16T02:51:17.864Z,5.30
2018-01-16T02:52:16.854Z,5.33
2018-01-16T02:53:26.946Z,5.35
2018-01-16T02:54:16.251Z,5.39
2018-01-16T02:55:16.046Z,5.40
2018-01-16T02:56:16.039Z,5.54
2018-01-16T02:57:16.084Z,5.46
2018-01-16T02:58:16.001Z,5.57
2018-01-16T02:59:51.196Z,5.46
2018-01-16T03:00:16.902Z,5.57
2018-01-16T03:01:15.956Z,5.64
2018-01-16T03:02:15.962Z,5.68
2018-01-16T03:03:15.941Z,5.61
2018-01-16T03:04:15.904Z,5.63
2018-01-16T03:05:15.936Z,5.57
2018-01-16T03:06:16.383Z,5.67
2018-01-16T03:07:16.441Z,5.64
2018-01-16T03:37:55.433Z,5.54
2018-01-16T03:38:28.400Z,5.57
2018-01-16T03:44:15.601Z,5.61
2018-01-16T03:44:49.647Z,5.67
2018-01-16T03:45:48.649Z,5.64
2018-01-16T03:46:48.624Z,5.64
2018-01-16T03:47:49.929Z,5.65
2018-01-16T03:48:49.323Z,5.65
2018-01-16T03:49:56.974Z,5.63
2018-01-16T03:50:48.572Z,5.72
2018-01-16T03:51:48.572Z,5.74
2018-01-16T03:52:48.528Z,5.74
2018-01-16T03:53:48.509Z,5.68
2018-01-16T03:54:50.754Z,5.76
2018-01-16T03:55:49.493Z,5.67
2018-01-16T03:56:48.425Z,5.75
2018-01-16T04:10:48.881Z,5.63
2018-01-16T04:11:48.878Z,5.53
2018-01-16T04:12:48.986Z,5.56
2018-01-16T04:13:49.570Z,5.54
2018-01-16T04:14:53.740Z,5.51
2018-01-16T04:15:48.778Z,5.46
2018-01-16T04:16:48.784Z,5.39
2018-01-16T04:17:48.902Z,5.48
2018-01-16T04:18:49.621Z,5.43
2018-01-16T04:24:13.618Z,5.45
2018-01-16T04:25:00.093Z,5.45
2018-01-16T04:26:00.053Z,5.40
2018-01-16T04:27:01.621Z,5.42
2018-01-16T04:27:59.969Z,5.40
2018-01-16T04:29:01.014Z,5.43
2018-01-16T04:30:00.628Z,5.42
2018-01-16T04:31:04.353Z,5.38
2018-01-16T04:32:00.666Z,5.48
2018-01-16T04:32:59.860Z,5.39
2018-01-16T04:33:59.841Z,5.39
2018-01-16T04:34:59.822Z,5.42
2018-01-16T04:35:59.849Z,5.38
2018-01-16T04:36:59.780Z,5.31
2018-01-16T04:37:59.770Z,5.31
2018-01-16T04:38:59.722Z,5.30
2018-01-16T04:39:59.785Z,5.20
2018-01-16T04:40:59.720Z,5.36
2018-01-16T04:41:59.700Z,5.20
2018-01-16T04:42:59.682Z,5.24
2018-01-16T04:43:59.643Z,5.36
2018-01-16T04:44:59.630Z,5.21
2018-01-16T04:45:59.636Z,5.24
2018-01-16T04:46:59.602Z,5.24
2018-01-16T04:47:59.592Z,5.30
2018-01-16T04:48:59.548Z,5.31
2018-01-16T04:49:59.532Z,5.27
2018-01-16T04:50:59.677Z,5.27
2018-01-16T04:51:59.520Z,5.38
2018-01-16T04:52:59.501Z,5.02
2018-01-16T04:53:59.488Z,4.37
2018-01-16T04:54:59.449Z,4.06
2018-01-16T04:55:59.434Z,3.80
2018-01-16T04:56:59.511Z,3.66
2018-01-16T04:57:59.413Z,3.58
2018-01-16T04:58:59.364Z,3.51
2018-01-16T04:59:59.346Z,3.29
2018-01-16T05:00:59.350Z,3.14
2018-01-16T05:01:59.333Z,3.14
2018-01-16T05:02:59.309Z,3.14
2018-01-16T05:03:59.292Z,3.02
2018-01-16T05:04:59.267Z,3.06
2018-01-16T05:05:59.255Z,3.02
2018-01-16T05:06:59.285Z,2.95
2018-01-16T05:07:59.211Z,3.11
2018-01-16T05:08:59.203Z,3.11
2018-01-16T05:09:59.166Z,3.18
2018-01-16T05:10:59.167Z,3.15
2018-01-16T05:11:59.145Z,3.15
2018-01-16T05:12:59.133Z,3.36
2018-01-16T05:13:59.078Z,3.29
2018-01-16T05:14:59.079Z,3.42
2018-01-16T05:15:59.054Z,3.31
2018-01-16T05:16:59.021Z,3.45
2018-01-16T05:17:59.177Z,3.52
2018-01-16T05:18:59.010Z,3.51
2018-01-16T05:19:58.981Z,3.52
2018-01-16T05:20:58.973Z,3.60
2018-01-16T05:21:58.961Z,3.52
2018-01-16T05:22:58.947Z,3.51
2018-01-16T05:23:58.949Z,3.58
2018-01-16T05:24:58.892Z,3.68
2018-01-16T05:25:58.883Z,3.55
2018-01-16T05:26:58.860Z,3.62
2018-01-16T05:27:58.815Z,3.57
2018-01-16T05:28:58.849Z,3.62
2018-01-16T05:29:58.791Z,3.61
2018-01-16T05:30:58.772Z,3.57
2018-01-16T05:31:58.755Z,3.72
2018-01-16T05:32:58.729Z,3.55
2018-01-16T05:33:58.768Z,3.57
2018-01-16T05:34:58.695Z,3.62
2018-01-16T05:35:58.675Z,3.58
2018-01-16T05:36:58.648Z,3.58
2018-01-16T05:37:58.639Z,3.55
2018-01-16T05:38:58.636Z,3.58
2018-01-16T05:39:58.621Z,3.62
2018-01-16T05:40:58.584Z,3.70
2018-01-16T05:41:58.577Z,3.61
2018-01-16T05:42:58.565Z,3.57
2018-01-16T05:43:58.559Z,3.54
2018-01-16T05:44:58.509Z,3.54
2018-01-16T05:45:58.500Z,3.50
2018-01-16T05:46:58.459Z,3.55
2018-01-16T05:47:58.452Z,3.55
2018-01-16T05:48:58.462Z,3.54
2018-01-16T05:49:58.430Z,3.62
2018-01-16T05:50:58.681Z,3.60
2018-01-16T05:51:58.386Z,3.58
2018-01-16T05:52:58.371Z,3.57
2018-01-16T05:53:58.331Z,3.55
2018-01-16T05:54:58.331Z,3.61
2018-01-16T05:55:58.310Z,3.57
2018-01-16T05:56:58.291Z,3.57
2018-01-16T05:57:58.269Z,3.65
2018-01-16T05:58:58.230Z,3.65
2018-01-16T05:59:58.224Z,3.52
2018-01-16T06:00:58.212Z,3.66
2018-01-16T06:01:58.258Z,3.68
2018-01-16T06:02:58.179Z,3.58
2018-01-16T06:03:58.156Z,3.65
2018-01-16T06:04:58.151Z,3.65
2018-01-16T06:05:58.115Z,3.66
2018-01-16T06:06:58.098Z,3.62
2018-01-16T06:07:58.098Z,3.61
2018-01-16T06:08:58.056Z,3.52
2018-01-16T06:09:58.047Z,3.43
2018-01-16T06:10:58.096Z,3.31
2018-01-16T06:11:58.013Z,3.15
2018-01-16T06:12:57.980Z,3.03
2018-01-16T06:13:57.954Z,3.03
2018-01-16T06:14:57.960Z,2.93
2018-01-16T06:15:57.932Z,2.92
2018-01-16T06:16:57.929Z,2.93
2018-01-16T06:17:57.895Z,2.89
2018-01-16T06:18:57.883Z,2.95
2018-01-16T06:19:57.858Z,2.90
2018-01-16T06:20:57.849Z,3.03
2018-01-16T06:21:57.839Z,2.93
2018-01-16T06:22:57.812Z,3.05
2018-01-16T06:23:57.796Z,3.00
2018-01-16T06:24:57.752Z,3.06
2018-01-16T06:25:57.761Z,3.13
2018-01-16T06:26:57.731Z,3.03
2018-01-16T06:27:57.688Z,3.02
2018-01-16T06:28:57.694Z,2.95
2018-01-16T06:29:57.650Z,2.92
2018-01-16T06:30:57.666Z,2.89
2018-01-16T06:31:57.620Z,2.87
2018-01-16T06:32:57.613Z,2.87
2018-01-16T06:33:57.592Z,2.87
2018-01-16T06:34:57.554Z,2.90
2018-01-16T06:35:57.616Z,2.89
2018-01-16T06:36:57.527Z,2.89
2018-01-16T06:37:57.502Z,2.79
2018-01-16T06:38:57.498Z,2.72
2018-01-16T06:39:57.473Z,2.77
2018-01-16T06:40:57.469Z,2.75
2018-01-16T06:41:57.448Z,2.69
2018-01-16T06:42:57.426Z,2.67
2018-01-16T06:43:57.391Z,2.67
2018-01-16T06:44:57.371Z,2.71
2018-01-16T06:45:57.691Z,2.66
2018-01-16T06:46:57.338Z,2.63
2018-01-16T06:47:57.323Z,2.59
2018-01-16T06:48:57.293Z,2.61
2018-01-16T06:49:57.278Z,2.61
2018-01-16T06:50:57.256Z,2.53
2018-01-16T06:51:57.233Z,2.54
2018-01-16T06:52:57.220Z,2.41
2018-01-16T06:53:57.199Z,2.27
2018-01-16T06:54:57.189Z,2.30
2018-01-16T06:55:57.157Z,2.28
2018-01-16T06:56:57.206Z,2.25
2018-01-16T06:57:57.123Z,2.23
2018-01-16T06:58:57.104Z,2.17
2018-01-16T06:59:57.074Z,2.14
2018-01-16T07:00:57.078Z,2.10
2018-01-16T07:01:57.047Z,2.06
2018-01-16T07:02:57.058Z,2.02
2018-01-16T07:03:56.992Z,2.12
2018-01-16T07:04:57.003Z,2.07
2018-01-16T07:05:56.955Z,2.00
2018-01-16T07:06:57.162Z,2.02
2018-01-16T07:07:56.942Z,1.98
2018-01-16T07:08:56.912Z,2.06
2018-01-16T07:09:56.894Z,2.09
2018-01-16T07:10:56.879Z,2.09
2018-01-16T07:11:56.860Z,2.09
2018-01-16T07:12:56.850Z,2.16
2018-01-16T07:13:56.811Z,2.17
2018-01-16T07:14:56.791Z,2.09
2018-01-16T07:15:56.758Z,2.14
2018-01-16T07:16:56.760Z,2.17
2018-01-16T07:17:56.793Z,2.23
2018-01-16T07:18:56.727Z,2.21
2018-01-16T07:19:56.699Z,2.27
2018-01-16T07:20:56.670Z,2.34
2018-01-16T07:21:56.653Z,2.25
2018-01-16T07:22:56.633Z,2.20
2018-01-16T07:23:56.630Z,2.14
2018-01-16T07:24:56.606Z,2.23
2018-01-16T07:25:56.585Z,2.27
2018-01-16T07:26:56.876Z,2.30
2018-01-16T07:27:56.549Z,2.20
2018-01-16T07:28:56.531Z,2.18
2018-01-16T07:29:56.507Z,2.25
2018-01-16T07:30:56.494Z,2.24
2018-01-16T07:31:56.445Z,2.30
2018-01-16T07:32:56.455Z,2.35
2018-01-16T07:33:56.485Z,2.36
2018-01-16T07:34:56.406Z,2.28
2018-01-16T07:35:56.391Z,2.23
2018-01-16T07:36:56.365Z,2.20
2018-01-16T07:37:56.358Z,2.24
2018-01-16T07:38:56.338Z,2.38
2018-01-16T07:39:56.363Z,2.28
2018-01-16T07:40:56.302Z,2.41
2018-01-16T07:41:56.264Z,2.41
2018-01-16T07:42:56.241Z,2.39
2018-01-16T07:43:56.224Z,2.52
2018-01-16T07:44:56.193Z,2.49
2018-01-16T07:45:56.199Z,2.53
2018-01-16T07:46:56.226Z,2.59
2018-01-16T07:47:56.150Z,2.52
2018-01-16T07:48:56.142Z,2.64
2018-01-16T07:49:56.123Z,2.69
2018-01-16T07:50:56.095Z,2.77
2018-01-16T07:51:56.069Z,2.75
2018-01-16T07:52:56.051Z,2.82
2018-01-16T07:53:56.036Z,2.82
2018-01-16T07:54:56.024Z,2.81
2018-01-16T07:55:56.042Z,2.79
2018-01-16T07:56:55.972Z,2.82
2018-01-16T07:57:55.942Z,2.90
2018-01-16T07:58:55.948Z,2.89
2018-01-16T07:59:55.931Z,2.90
2018-01-16T08:00:56.002Z,2.93
2018-01-16T08:01:55.891Z,2.89
2018-01-16T08:02:55.874Z,2.85
2018-01-16T08:03:55.854Z,2.95
2018-01-16T08:04:55.812Z,2.87
2018-01-16T08:05:55.819Z,2.95
2018-01-16T08:06:56.097Z,2.95
2018-01-16T08:07:55.751Z,2.92
2018-01-16T08:08:55.739Z,2.92
2018-01-16T08:09:55.725Z,2.93
2018-01-16T08:10:55.710Z,2.84
2018-01-16T08:11:55.676Z,3.00
2018-01-16T08:12:55.684Z,2.87
2018-01-16T08:13:55.644Z,2.95
2018-01-16T08:14:55.629Z,2.85
2018-01-16T08:15:55.638Z,2.99
2018-01-16T08:16:55.624Z,3.03
2018-01-16T08:17:55.584Z,3.17
2018-01-16T08:18:55.553Z,3.17
2018-01-16T08:19:55.544Z,3.18
2018-01-16T08:20:55.549Z,3.23
2018-01-16T08:21:55.542Z,3.31
2018-01-16T08:22:55.484Z,3.32
2018-01-16T08:23:55.466Z,3.39
2018-01-16T08:24:55.460Z,3.42
2018-01-16T08:25:55.434Z,3.42
2018-01-16T08:26:55.445Z,3.47
2018-01-16T08:27:55.397Z,3.51
2018-01-16T08:28:55.366Z,3.51
2018-01-16T08:29:55.352Z,3.57
2018-01-16T08:30:55.363Z,3.62
2018-01-16T08:31:55.322Z,3.66
2018-01-16T08:32:55.316Z,3.62
2018-01-16T08:33:55.268Z,3.75
2018-01-16T08:34:55.256Z,3.61
2018-01-16T08:35:55.225Z,3.72
2018-01-16T08:36:55.230Z,3.68
2018-01-16T08:37:55.246Z,3.75
2018-01-16T08:38:55.198Z,3.79
2018-01-16T08:39:55.180Z,3.80
2018-01-16T08:40:55.148Z,3.84
2018-01-16T08:41:55.145Z,3.87
2018-01-16T08:42:55.110Z,3.83
2018-01-16T08:43:55.107Z,3.98
2018-01-16T08:44:55.073Z,3.97
2018-01-16T08:45:55.058Z,4.00
2018-01-16T08:46:55.165Z,4.04
2018-01-16T08:47:55.021Z,4.09
2018-01-16T08:48:54.998Z,4.08
2018-01-16T08:49:54.980Z,4.11
2018-01-16T08:50:55.197Z,4.06
2018-01-16T08:51:54.969Z,4.06
2018-01-16T08:52:54.997Z,4.09
2018-01-16T08:53:54.911Z,4.11
2018-01-16T08:54:54.904Z,4.16
2018-01-16T08:55:54.857Z,4.15
2018-01-16T08:56:54.853Z,4.11
2018-01-16T08:57:54.833Z,4.15
2018-01-16T08:58:54.874Z,4.16
2018-01-16T08:59:54.786Z,4.16
2018-01-16T09:00:54.772Z,4.26
2018-01-16T09:01:54.760Z,4.34
2018-01-16T09:02:54.748Z,4.26
2018-01-16T09:03:54.782Z,4.40
2018-01-16T09:04:54.713Z,4.37
2018-01-16T09:05:54.706Z,4.36
2018-01-16T09:06:54.679Z,4.41
2018-01-16T09:07:54.657Z,4.51
2018-01-16T09:08:54.639Z,4.50
2018-01-16T09:09:54.670Z,4.55
2018-01-16T09:10:54.613Z,4.50
2018-01-16T09:11:54.601Z,4.50
2018-01-16T09:12:54.566Z,4.45
2018-01-16T09:13:54.549Z,4.52
2018-01-16T09:14:54.585Z,4.55
2018-01-16T09:15:54.516Z,4.58
2018-01-16T09:16:54.504Z,4.59
2018-01-16T09:17:54.464Z,4.58
2018-01-16T09:18:54.447Z,4.52
2018-01-16T09:19:54.457Z,4.52
2018-01-16T09:20:54.460Z,4.60
2018-01-16T09:21:54.399Z,4.48
2018-01-16T09:22:54.387Z,4.52
2018-01-16T09:23:54.386Z,4.60
2018-01-16T09:24:54.401Z,4.54
2018-01-16T09:25:54.341Z,4.55
2018-01-16T09:26:54.321Z,4.65
2018-01-16T09:27:54.337Z,4.67
2018-01-16T09:28:54.854Z,4.73
2018-01-16T09:29:54.339Z,4.72
2018-01-16T09:30:54.256Z,4.72
2018-01-16T09:31:54.854Z,4.84
2018-01-16T09:32:54.199Z,4.80
2018-01-16T09:33:54.195Z,4.88
2018-01-16T09:34:54.182Z,4.92
2018-01-16T09:35:54.209Z,4.96
2018-01-16T09:36:54.140Z,5.03
2018-01-16T09:37:54.144Z,5.06
2018-01-16T09:38:54.113Z,5.09
2018-01-16T09:39:54.117Z,5.04
2018-01-16T09:40:54.077Z,5.03
2018-01-16T09:41:54.068Z,5.09
2018-01-16T09:42:54.048Z,5.09
2018-01-16T09:43:54.040Z,5.18
2018-01-16T09:44:54.049Z,5.24
2018-01-16T09:45:54.054Z,5.21
2018-01-16T09:46:53.961Z,5.28
2018-01-16T09:47:53.970Z,5.38
2018-01-16T09:48:53.957Z,5.39
2018-01-16T09:49:53.934Z,5.42
2018-01-16T09:50:53.980Z,5.36
2018-01-16T09:51:53.910Z,5.31
2018-01-16T09:52:53.882Z,5.36
2018-01-16T09:53:53.874Z,5.38
2018-01-16T09:54:53.832Z,5.42
2018-01-16T09:55:53.821Z,5.27
2018-01-16T09:56:53.848Z,5.31
2018-01-16T09:57:53.791Z,5.27
2018-01-16T09:58:53.776Z,5.38
2018-01-16T09:59:53.743Z,5.30
2018-01-16T10:00:53.738Z,5.45
2018-01-16T10:01:54.034Z,5.38
2018-01-16T10:02:53.724Z,5.42
2018-01-16T10:03:53.675Z,5.40
2018-01-16T10:04:53.677Z,5.43
2018-01-16T10:05:53.638Z,5.40
2018-01-16T10:06:53.641Z,5.31
2018-01-16T10:07:53.705Z,5.40
2018-01-16T10:08:53.601Z,5.43
2018-01-16T10:09:53.628Z,5.20
2018-01-16T10:10:53.584Z,5.17
2018-01-16T10:11:53.581Z,5.15
2018-01-16T10:12:53.751Z,4.94
2018-01-16T10:13:54.189Z,4.89
2018-01-16T10:14:53.501Z,4.77
2018-01-16T10:15:53.486Z,4.78
2018-01-16T10:16:53.476Z,4.82
2018-01-16T10:17:53.488Z,4.77
2018-01-16T10:18:53.422Z,4.75
2018-01-16T10:19:53.416Z,4.80
2018-01-16T10:20:53.390Z,4.75
2018-01-16T10:21:53.399Z,4.75
2018-01-16T10:22:53.397Z,4.70
2018-01-16T10:23:53.653Z,4.73
2018-01-16T10:24:53.368Z,4.63
2018-01-16T10:25:53.311Z,4.66
2018-01-16T10:26:53.271Z,4.67
2018-01-16T10:27:53.579Z,4.60
2018-01-16T10:28:53.781Z,4.52
2018-01-16T10:29:53.273Z,4.59
2018-01-16T10:30:53.215Z,4.54
2018-01-16T10:31:53.235Z,4.52
2018-01-16T10:32:55.558Z,4.45
2018-01-16T10:33:53.171Z,4.45
2018-01-16T10:34:53.184Z,4.42
2018-01-16T10:35:53.125Z,4.27
2018-01-16T10:36:53.116Z,4.20
2018-01-16T10:37:53.165Z,4.12
2018-01-16T10:38:53.554Z,4.00
2018-01-16T10:39:53.086Z,3.93
2018-01-16T10:40:53.243Z,3.93
2018-01-16T10:41:53.034Z,3.84
2018-01-16T10:42:53.105Z,3.69
2018-01-16T10:43:52.961Z,3.55
2018-01-16T10:44:52.954Z,3.61
2018-01-16T10:45:52.954Z,3.50
2018-01-16T10:46:52.942Z,3.52
2018-01-16T10:47:53.487Z,3.45
2018-01-16T10:48:52.919Z,3.48
2018-01-16T10:49:53.216Z,3.47
2018-01-16T10:50:52.879Z,3.42
2018-01-16T10:51:52.836Z,3.45
2018-01-16T10:52:52.828Z,3.48
2018-01-16T10:53:52.854Z,3.50
2018-01-16T10:54:52.777Z,3.50
2018-01-16T10:55:52.761Z,3.52
2018-01-16T10:56:52.726Z,3.51
2018-01-16T10:57:52.758Z,3.51
2018-01-16T10:58:52.833Z,3.57
2018-01-16T10:59:52.796Z,3.58
2018-01-16T11:00:52.801Z,3.62
2018-01-16T11:01:52.657Z,3.68
2018-01-16T11:02:52.668Z,3.62
2018-01-16T11:03:52.602Z,3.62
2018-01-16T11:04:52.624Z,3.65
2018-01-16T11:05:52.695Z,3.55
2018-01-16T11:06:52.544Z,3.66
2018-01-16T11:07:53.161Z,3.66
2018-01-16T11:08:52.589Z,3.55
2018-01-16T11:09:52.557Z,3.65
2018-01-16T11:10:52.487Z,3.70
2018-01-16T11:11:52.452Z,3.70
2018-01-16T11:12:52.566Z,3.78
2018-01-16T11:13:52.412Z,3.76
2018-01-16T11:14:52.428Z,3.83
2018-01-16T11:15:52.395Z,3.84
2018-01-16T11:16:52.403Z,3.93
2018-01-16T11:17:52.365Z,3.91
2018-01-16T11:18:52.336Z,3.98
2018-01-16T11:19:52.360Z,3.94
2018-01-16T11:20:52.443Z,3.97
2018-01-16T11:21:52.279Z,3.98
2018-01-16T11:22:53.864Z,3.97
2018-01-16T11:23:52.238Z,4.04
2018-01-16T11:24:52.218Z,3.93
2018-01-16T11:25:53.224Z,3.91
2018-01-16T11:26:52.180Z,3.88
2018-01-16T11:27:52.178Z,3.98
2018-01-16T11:28:52.149Z,4.00
2018-01-16T11:29:52.140Z,4.05
2018-01-16T11:30:52.129Z,4.09
2018-01-16T11:31:52.177Z,4.06
2018-01-16T11:32:52.072Z,4.02
2018-01-16T11:33:52.076Z,4.05
2018-01-16T11:34:52.037Z,4.06
2018-01-16T11:35:52.029Z,4.04
2018-01-16T11:36:51.995Z,4.08
2018-01-16T11:37:52.052Z,3.98
2018-01-16T11:38:52.035Z,4.09
2018-01-16T11:39:51.962Z,4.08
2018-01-16T11:40:52.904Z,4.12
2018-01-16T11:41:51.914Z,4.08
2018-01-16T11:42:52.163Z,4.11
2018-01-16T11:43:51.881Z,4.05
2018-01-16T11:44:51.866Z,4.12
2018-01-16T11:45:51.831Z,4.11
2018-01-16T11:46:51.824Z,4.16
2018-01-16T11:47:51.833Z,4.12
2018-01-16T11:48:51.775Z,4.23
2018-01-16T11:49:51.768Z,4.15
2018-01-16T11:50:51.751Z,4.15
2018-01-16T11:51:51.743Z,4.15
2018-01-16T11:52:51.736Z,4.16
2018-01-16T11:53:51.706Z,4.22
2018-01-16T11:54:51.665Z,4.15
2018-01-16T11:55:51.698Z,4.26
2018-01-16T11:56:51.638Z,4.18
2018-01-16T11:57:51.622Z,4.29
2018-01-16T11:58:51.596Z,4.23
2018-01-16T11:59:51.571Z,4.30
2018-01-16T12:00:51.568Z,4.32
2018-01-16T12:01:51.569Z,4.29
2018-01-16T12:02:51.532Z,4.44
2018-01-16T12:03:51.528Z,4.32
2018-01-16T12:04:51.490Z,4.37
2018-01-16T12:05:51.538Z,4.37
2018-01-16T12:06:51.468Z,4.44
2018-01-16T12:07:51.446Z,4.37
2018-01-16T12:08:51.428Z,4.33
2018-01-16T12:09:51.410Z,4.37
2018-01-16T12:10:51.382Z,4.36
2018-01-16T12:11:51.384Z,4.32
2018-01-16T12:12:51.349Z,4.27
2018-01-16T12:13:51.327Z,4.41
2018-01-16T12:14:51.294Z,4.40
2018-01-16T12:15:51.297Z,4.36
2018-01-16T12:16:51.296Z,4.30
2018-01-16T12:17:51.259Z,4.24
2018-01-16T12:18:51.230Z,4.26
2018-01-16T12:19:51.217Z,4.32
2018-01-16T12:20:51.201Z,4.27
2018-01-16T12:21:51.200Z,4.40
2018-01-16T12:22:51.160Z,4.36
2018-01-16T12:23:51.156Z,4.41
2018-01-16T12:24:51.124Z,4.30
2018-01-16T12:25:51.119Z,4.37
2018-01-16T12:26:51.132Z,4.36
2018-01-16T12:27:51.068Z,4.37
2018-01-16T12:28:51.231Z,4.33
2018-01-16T12:29:51.051Z,4.37
2018-01-16T12:30:51.036Z,4.44
2018-01-16T12:31:50.999Z,4.40
2018-01-16T12:32:51.024Z,4.37
2018-01-16T12:33:50.983Z,4.37
2018-01-16T12:34:50.947Z,4.41
2018-01-16T12:35:50.929Z,4.47
2018-01-16T12:36:50.915Z,4.40
2018-01-16T12:37:51.178Z,4.37
2018-01-16T12:38:50.855Z,4.41
2018-01-16T12:39:50.834Z,4.37
2018-01-16T12:40:50.838Z,4.47
2018-01-16T12:41:50.826Z,4.58
2018-01-16T12:42:50.795Z,4.41
2018-01-16T12:43:50.769Z,4.47
2018-01-16T12:44:50.773Z,4.51
2018-01-16T12:45:50.734Z,4.50
2018-01-16T12:46:50.732Z,4.48
2018-01-16T12:47:50.718Z,4.51
2018-01-16T12:48:50.989Z,4.54
2018-01-16T12:49:50.721Z,4.55
2018-01-16T12:50:50.665Z,4.59
2018-01-16T12:51:50.642Z,4.65
2018-01-16T12:52:50.626Z,4.65
2018-01-16T12:53:50.610Z,4.67
2018-01-16T12:54:50.607Z,4.73
2018-01-16T12:55:50.561Z,4.67
2018-01-16T12:56:50.538Z,4.73
2018-01-16T12:57:50.635Z,4.75
2018-01-16T12:58:50.812Z,4.78
2018-01-16T12:59:50.500Z,4.85
2018-01-16T13:00:50.501Z,4.91
2018-01-16T13:01:50.470Z,4.86
2018-01-16T13:02:50.440Z,5.00
2018-01-16T13:03:50.431Z,4.97
2018-01-16T13:04:50.455Z,4.91
2018-01-16T13:05:50.372Z,5.03
2018-01-16T13:06:50.352Z,5.00
2018-01-16T13:07:50.363Z,5.06
2018-01-16T13:08:50.322Z,5.04
2018-01-16T13:09:50.331Z,5.02
2018-01-16T13:10:50.363Z,5.03
2018-01-16T13:11:50.286Z,5.07
2018-01-16T13:12:50.275Z,5.03
2018-01-16T13:13:50.288Z,5.17
2018-01-16T13:14:50.230Z,5.20
2018-01-16T13:15:50.244Z,5.18
2018-01-16T13:16:50.191Z,5.24
2018-01-16T13:17:50.170Z,5.25
2018-01-16T13:18:50.175Z,5.28
2018-01-16T13:19:50.143Z,5.24
2018-01-16T13:20:50.223Z,5.20
2018-01-16T13:21:50.113Z,5.35
2018-01-16T13:22:50.071Z,5.20
2018-01-16T13:23:50.091Z,5.09
2018-01-16T13:24:50.048Z,4.99
2018-01-16T13:25:50.046Z,4.72
2018-01-16T13:26:50.034Z,4.47
2018-01-16T13:27:50.067Z,4.14
2018-01-16T13:28:49.963Z,4.09
2018-01-16T13:29:49.972Z,4.02
2018-01-16T13:30:50.000Z,4.05
2018-01-16T13:31:50.000Z,4.02
2018-01-16T13:32:50.651Z,3.90
2018-01-16T13:33:49.908Z,3.80
2018-01-16T13:34:49.873Z,3.68
2018-01-16T13:35:49.854Z,3.52
2018-01-16T13:36:49.860Z,3.29
2018-01-16T13:37:49.813Z,3.21
2018-01-16T13:38:49.805Z,3.15
2018-01-16T13:39:49.803Z,3.05
2018-01-16T13:40:50.760Z,3.17
2018-01-16T13:41:49.751Z,3.14
2018-01-16T13:42:49.739Z,3.17
2018-01-16T13:43:50.437Z,3.14
2018-01-16T13:44:49.705Z,3.10
2018-01-16T13:45:49.672Z,3.11
2018-01-16T13:46:49.708Z,3.13
2018-01-16T13:47:49.644Z,3.24
2018-01-16T13:48:49.596Z,3.26
2018-01-16T13:49:49.595Z,3.20
2018-01-16T13:50:49.571Z,3.13
2018-01-16T13:51:49.562Z,3.18
2018-01-16T13:52:49.595Z,3.18
2018-01-16T13:53:49.524Z,3.29
2018-01-16T13:54:49.496Z,3.35
2018-01-16T13:55:49.483Z,3.35
2018-01-16T13:56:49.472Z,3.33
2018-01-16T13:57:49.439Z,3.42
2018-01-16T13:58:49.434Z,3.42
2018-01-16T13:59:49.754Z,3.51
2018-01-16T14:00:49.382Z,3.52
2018-01-16T14:01:49.351Z,3.42
2018-01-16T14:02:49.331Z,3.57
2018-01-16T14:03:49.641Z,3.54
2018-01-16T14:04:49.295Z,3.51
2018-01-16T14:05:49.291Z,3.51
2018-01-16T14:06:49.289Z,3.54
2018-01-16T14:07:49.270Z,3.57
2018-01-16T14:08:49.290Z,3.68